Time;durP1;ratioP1;P1;durP2;ratioP2;P2;SDS_P1;SDS_P2;PMS_P1;PMS_P2;Temp;Humidity;BMP_temperature;BMP_pressure;BME280_temperature;BME280_humidity;BME280_pressure;Samples;Min_cycle;Max_cycle;Signal;HPM_P1;HPM_P2
2023/01/03 00:00:34;;;;;;;;;2.00;1.00;;;;;20.31;53.47;102034.19;5075963;27;47117;-77
2023/01/03 00:03:00;;;;;;;;;2.00;1.00;;;;;20.30;53.52;102022.69;5072568;27;45756;-77
2023/01/03 00:05:25;;;;;;;;;1.00;1.00;;;;;20.32;53.52;102025.28;5057777;27;47892;-77
2023/01/03 00:07:50;;;;;;;;;1.00;1.00;;;;;20.32;53.40;102030.59;5074068;27;45372;-76
2023/01/03 00:10:16;;;;;;;;;1.00;0.75;;;;;20.32;53.53;102029.75;5057915;28;45550;-77
2023/01/03 00:12:41;;;;;;;;;1.00;1.00;;;;;20.33;53.39;102031.44;5075837;27;45300;-76
2023/01/03 00:15:07;;;;;;;;;5.00;1.00;;;;;20.30;53.58;102033.31;5059901;28;47282;-77
2023/01/03 00:17:33;;;;;;;;;0.25;0.25;;;;;20.41;53.71;102050.56;5075818;28;46054;-77
2023/01/03 00:19:58;;;;;;;;;1.00;1.00;;;;;20.45;53.32;102055.69;5104780;27;45302;-77
2023/01/03 00:22:24;;;;;;;;;2.00;1.00;;;;;20.25;53.19;102027.34;5058620;27;46177;-77
2023/01/03 00:24:51;;;;;;;;;1.00;1.00;;;;;20.33;53.28;102039.41;5064006;27;45508;-78
2023/01/03 00:27:16;;;;;;;;;3.00;3.00;;;;;20.24;53.43;102027.47;5101795;27;45810;-79
2023/01/03 00:29:42;;;;;;;;;1.00;1.00;;;;;20.43;53.34;102049.56;5091594;27;45592;-79
2023/01/03 00:32:08;;;;;;;;;2.50;0.25;;;;;20.38;53.50;102048.03;5072402;27;45398;-79
2023/01/03 00:34:34;;;;;;;;;1.50;0.00;;;;;20.43;53.43;102054.91;5068647;28;47261;-79
2023/01/03 00:37:00;;;;;;;;;4.00;1.00;;;;;20.33;53.31;102039.41;5049005;28;45396;-79
2023/01/03 00:39:25;;;;;;;;;1.25;1.25;;;;;20.10;53.12;101997.06;5057042;28;45255;-79
2023/01/03 00:41:51;;;;;;;;;1.00;1.00;;;;;20.17;53.50;102005.59;5108532;27;45380;-79
2023/01/03 00:44:16;;;;;;;;;1.00;1.00;;;;;20.22;53.42;102016.88;5079524;27;45430;-77
2023/01/03 00:46:42;;;;;;;;;2.00;1.00;;;;;20.34;53.02;102038.50;5074976;27;45492;-77
2023/01/03 00:49:08;;;;;;;;;1.25;1.00;;;;;20.26;53.44;102033.56;5078468;27;45511;-78
2023/01/03 00:51:35;;;;;;;;;0.75;0.75;;;;;20.26;53.28;102026.44;5076674;27;45744;-78
2023/01/03 00:54:02;;;;;;;;;1.00;0.00;;;;;20.19;53.18;102017.03;5072186;27;45522;-78
2023/01/03 00:56:34;;;;;;;;;0.00;0.00;;;;;20.24;52.92;102036.28;5070225;27;45327;-78
2023/01/03 00:58:59;;;;;;;;;2.50;1.50;;;;;20.29;53.11;102038.69;5076014;28;45441;-77
2023/01/03 01:01:31;;;;;;;;;2.00;1.00;;;;;20.15;53.47;102025.19;5055200;28;45435;-77
2023/01/03 01:04:18;;;;;;;;;1.00;1.00;;;;;20.32;53.30;102043.03;5068920;27;48186;-77
2023/01/03 01:06:50;;;;;;;;;2.00;1.00;;;;;20.30;53.19;102046.63;5078394;27;45605;-77
2023/01/03 01:09:27;;;;;;;;;2.75;1.00;;;;;20.36;53.35;102050.81;5075068;27;45460;-77
2023/01/03 01:11:53;;;;;;;;;0.75;0.75;;;;;20.18;53.25;102017.94;5073492;28;45721;-77
2023/01/03 01:14:20;;;;;;;;;1.00;0.75;;;;;20.22;53.66;102030.19;5059097;28;46097;-77
2023/01/03 01:16:57;;;;;;;;;1.00;1.00;;;;;20.32;53.41;102051.00;5076136;27;45363;-77
2023/01/03 01:19:29;;;;;;;;;1.00;1.00;;;;;20.26;52.98;102044.19;5081325;28;45243;-77
2023/01/03 01:21:54;;;;;;;;;1.00;1.00;;;;;20.22;53.29;102038.16;5087514;27;45533;-77
2023/01/03 01:24:20;;;;;;;;;0.75;0.75;;;;;20.20;53.13;102034.72;5084003;27;47379;-77
2023/01/03 01:26:45;;;;;;;;;1.00;0.00;;;;;20.19;52.84;102029.47;5072122;27;45438;-77
2023/01/03 01:29:12;;;;;;;;;1.00;1.00;;;;;20.29;52.83;102044.03;5079153;28;45516;-77
2023/01/03 01:31:38;;;;;;;;;1.75;0.00;;;;;20.20;53.18;102025.84;5074552;27;45471;-77
2023/01/03 01:34:04;;;;;;;;;0.25;0.25;;;;;20.10;52.91;102014.81;5058572;28;48495;-77
2023/01/03 01:36:33;;;;;;;;;1.00;1.00;;;;;20.27;53.40;102049.44;5092123;27;45374;-77
2023/01/03 01:39:07;;;;;;;;;1.75;1.00;;;;;20.32;52.97;102057.19;5081044;27;45409;-77
2023/01/03 01:44:41;;;;;;;;;1.25;0.00;;;;;20.32;53.29;102057.19;5077147;27;45445;-77
2023/01/03 01:47:14;;;;;;;;;0.50;0.50;;;;;20.31;53.14;102058.13;5075644;27;45497;-76
2023/01/03 01:49:40;;;;;;;;;1.00;1.00;;;;;20.27;53.32;102054.75;5079415;27;45854;-77
2023/01/03 01:52:06;;;;;;;;;0.25;0.00;;;;;20.26;53.18;102054.81;5075075;27;45620;-77
2023/01/03 01:54:32;;;;;;;;;0.50;0.50;;;;;20.15;53.45;102031.41;5075009;27;45650;-77
2023/01/03 01:56:58;;;;;;;;;0.75;0.75;;;;;20.29;53.36;102062.63;5078097;27;45777;-77
2023/01/03 01:59:24;;;;;;;;;4.00;1.00;;;;;20.21;53.16;102054.16;5076989;27;45677;-76
2023/01/03 02:01:51;;;;;;;;;0.00;0.00;;;;;20.06;52.92;102030.03;5078708;27;45524;-76
2023/01/03 02:04:21;;;;;;;;;0.00;0.00;;;;;20.17;53.10;102047.25;5071471;27;45572;-76
2023/01/03 02:06:46;;;;;;;;;0.00;0.00;;;;;20.24;53.52;102052.22;5079730;27;45345;-76
2023/01/03 02:09:12;;;;;;;;;0.25;0.25;;;;;20.12;52.75;102041.31;5077164;27;45366;-76
2023/01/03 02:14:48;;;;;;;;;1.25;1.00;;;;;20.28;53.19;102072.41;5059927;28;45569;-76
2023/01/03 02:17:13;;;;;;;;;2.00;0.00;;;;;20.29;52.86;102082.13;5078720;27;45498;-76
2023/01/03 02:19:55;;;;;;;;;0.00;0.00;;;;;20.09;52.95;102039.66;5063976;27;45389;-76
2023/01/03 02:22:52;;;;;;;;;1.00;1.00;;;;;20.18;53.12;102065.78;5075856;27;45698;-77
2023/01/03 02:25:47;;;;;;;;;0.25;0.25;;;;;20.29;52.99;102089.22;5094376;27;47399;-78
2023/01/03 02:28:46;;;;;;;;;1.00;0.00;;;;;20.18;53.37;102065.78;5064595;27;45324;-78
2023/01/03 02:31:24;;;;;;;;;0.00;0.00;;;;;20.17;53.14;102066.75;5077442;28;45420;-78
2023/01/03 02:33:54;;;;;;;;;0.50;0.25;;;;;20.27;53.07;102080.44;5067905;27;45737;-76
2023/01/03 02:36:27;;;;;;;;;0.00;0.00;;;;;20.24;52.88;102084.13;5053185;27;47181;-76
2023/01/03 02:39:10;;;;;;;;;0.00;0.00;;;;;20.23;52.74;102084.19;5106705;27;45416;-77
2023/01/03 02:41:41;;;;;;;;;0.00;0.00;;;;;20.28;53.02;102084.84;5075237;27;45700;-77
2023/01/03 02:44:35;;;;;;;;;1.00;0.00;;;;;20.27;53.18;102089.31;5060683;28;45545;-77
2023/01/03 02:47:06;;;;;;;;;0.00;0.00;;;;;20.22;53.10;102079.81;5091831;27;47844;-77
2023/01/03 02:49:40;;;;;;;;;0.75;0.00;;;;;20.26;53.04;102076.94;5073595;27;45797;-77
2023/01/03 02:52:10;;;;;;;;;1.50;1.00;;;;;20.14;52.97;102056.25;5077676;28;45655;-76
2023/01/03 02:54:44;;;;;;;;;0.25;0.00;;;;;20.19;52.98;102070.19;5068841;27;45457;-77
2023/01/03 02:57:13;;;;;;;;;0.50;0.00;;;;;20.21;53.01;102078.09;5073691;27;45894;-77
2023/01/03 02:59:50;;;;;;;;;0.00;0.00;;;;;20.14;52.57;102064.22;5073985;27;46024;-77
2023/01/03 03:02:18;;;;;;;;;2.00;0.00;;;;;20.21;52.81;102080.75;5073177;27;45410;-76
2023/01/03 03:04:45;;;;;;;;;0.00;0.00;;;;;20.24;52.64;102084.13;5075444;28;45517;-76
2023/01/03 03:07:19;;;;;;;;;0.75;0.00;;;;;20.06;52.87;102061.94;5076044;27;46139;-76
2023/01/03 03:15:16;;;;;;;;;0.00;0.00;;;;;20.07;52.67;102052.16;5074025;28;45275;-76
2023/01/03 03:17:43;;;;;;;;;0.00;0.00;;;;;20.19;52.84;102069.34;5070328;27;46276;-76
2023/01/03 03:25:51;;;;;;;;;0.00;0.00;;;;;20.17;52.99;102082.69;5074883;27;45406;-75
2023/01/03 03:28:36;;;;;;;;;0.00;0.00;;;;;20.17;52.89;102080.03;5070004;27;46221;-76
2023/01/03 03:31:07;;;;;;;;;0.00;0.00;;;;;20.21;52.88;102084.25;5062034;28;45566;-77
2023/01/03 03:33:36;;;;;;;;;1.00;0.00;;;;;20.15;52.91;102083.69;5076107;28;45341;-78
2023/01/03 03:36:07;;;;;;;;;0.00;0.00;;;;;19.94;52.77;102045.66;5064158;28;45282;-78
2023/01/03 03:38:35;;;;;;;;;0.00;0.00;;;;;20.02;52.53;102055.00;5053303;27;47531;-77
2023/01/03 03:46:58;;;;;;;;;0.00;0.00;;;;;20.18;52.43;102081.75;5072777;27;45334;-75
2023/01/03 03:49:37;;;;;;;;;0.00;0.00;;;;;20.19;52.31;102078.16;5078221;27;45424;-76
2023/01/03 03:52:07;;;;;;;;;0.00;0.00;;;;;20.13;52.35;102067.78;5106285;27;45681;-76
2023/01/03 03:54:35;;;;;;;;;0.00;0.00;;;;;20.14;52.80;102074.00;5100065;27;45557;-76
2023/01/03 03:57:11;;;;;;;;;0.00;0.00;;;;;20.07;52.29;102068.94;5085420;27;45484;-76
2023/01/03 03:59:37;;;;;;;;;0.00;0.00;;;;;20.02;52.82;102065.63;5072713;27;46528;-76
2023/01/03 04:02:04;;;;;;;;;0.00;0.00;;;;;20.01;52.59;102065.69;5072371;27;45483;-76
2023/01/03 04:04:35;;;;;;;;;0.00;0.00;;;;;20.09;52.11;102076.84;5061036;28;45366;-76
2023/01/03 04:07:01;;;;;;;;;0.00;0.00;;;;;20.00;52.47;102066.66;5072063;28;45593;-76
2023/01/03 04:09:29;;;;;;;;;1.75;0.00;;;;;20.10;52.73;102068.81;5103732;27;47184;-76
2023/01/03 04:11:54;;;;;;;;;1.25;0.00;;;;;20.05;52.56;102065.50;5055313;28;45686;-76
2023/01/03 04:14:19;;;;;;;;;0.00;0.00;;;;;19.96;52.37;102051.78;5071787;27;45612;-77
2023/01/03 04:16:45;;;;;;;;;0.00;0.00;;;;;20.03;52.63;102069.16;5074845;27;54268;-77
2023/01/03 04:19:10;;;;;;;;;1.00;0.00;;;;;19.97;52.45;102058.81;5076482;27;47302;-76
2023/01/03 04:21:36;;;;;;;;;0.00;0.00;;;;;20.11;52.27;102082.94;5076501;27;45966;-77
2023/01/03 04:24:03;;;;;;;;;3.00;0.00;;;;;20.16;52.05;102091.59;5061199;28;45425;-76
2023/01/03 04:26:28;;;;;;;;;0.00;0.00;;;;;20.16;52.32;102101.38;5071176;27;46076;-76
2023/01/03 04:28:54;;;;;;;;;0.00;0.00;;;;;20.14;52.56;102095.25;5076245;27;45454;-79
2023/01/03 04:31:19;;;;;;;;;1.00;0.00;;;;;20.10;52.55;102091.88;5075883;28;45520;-79
2023/01/03 04:33:44;;;;;;;;;0.00;0.00;;;;;19.89;52.29;102068.00;5079526;28;45547;-77
2023/01/03 04:36:10;;;;;;;;;0.00;0.00;;;;;19.98;52.10;102080.00;5071761;27;45323;-76
2023/01/03 04:38:35;;;;;;;;;0.00;0.00;;;;;20.01;52.41;102085.19;5078195;28;48000;-76
2023/01/03 04:41:05;;;;;;;;;1.00;0.00;;;;;19.98;52.50;102076.50;5077553;27;45426;-77
2023/01/03 04:46:14;;;;;;;;;1.00;0.00;;;;;20.13;52.40;102115.63;5071078;27;45544;-77
2023/01/03 04:48:40;;;;;;;;;0.00;0.00;;;;;19.99;51.97;102089.72;5056277;28;47255;-76
2023/01/03 04:51:05;;;;;;;;;0.00;0.00;;;;;19.94;52.20;102082.84;5100441;27;45527;-77
2023/01/03 04:53:31;;;;;;;;;0.00;0.00;;;;;20.03;52.27;102091.28;5084597;27;45720;-77
2023/01/03 04:55:56;;;;;;;;;0.00;0.00;;;;;19.90;52.47;102079.47;5121800;27;44830;-77
2023/01/03 04:58:21;;;;;;;;;0.00;0.00;;;;;19.96;52.20;102092.50;5081921;27;47699;-76
2023/01/03 05:00:47;;;;;;;;;0.00;0.00;;;;;19.90;52.05;102082.13;5110779;27;52912;-79
2023/01/03 05:03:13;;;;;;;;;0.00;0.00;;;;;20.04;51.92;102108.09;5077958;27;45597;-78
2023/01/03 05:05:39;;;;;;;;;0.00;0.00;;;;;20.10;52.01;102129.09;5069707;27;45382;-78
2023/01/03 05:08:06;;;;;;;;;0.00;0.00;;;;;19.95;52.18;102108.50;5072311;28;45550;-78
2023/01/03 05:10:31;;;;;;;;;1.50;0.00;;;;;20.06;52.33;102120.38;5064317;28;45453;-76
2023/01/03 05:12:59;;;;;;;;;0.00;0.00;;;;;20.08;52.18;102131.81;5081181;27;45476;-76
2023/01/03 05:15:29;;;;;;;;;0.00;0.00;;;;;20.03;52.31;102114.34;5062277;28;45571;-75
2023/01/03 05:17:54;;;;;;;;;0.00;0.00;;;;;19.92;52.03;102106.84;5111145;27;46475;-76
2023/01/03 05:25:49;;;;;;;;;0.00;0.00;;;;;20.01;52.01;102122.38;5076234;27;45214;-76
2023/01/03 05:28:15;;;;;;;;;0.00;0.00;;;;;20.03;51.80;102139.13;5097595;27;47306;-75
2023/01/03 05:30:40;;;;;;;;;0.00;0.00;;;;;20.06;52.25;102135.44;5107140;27;45991;-75
2023/01/03 05:33:05;;;;;;;;;0.00;0.00;;;;;19.97;51.91;102127.88;5063622;28;49985;-75
2023/01/03 05:35:31;;;;;;;;;0.00;0.00;;;;;20.01;51.91;102129.47;5079369;27;59986;-75
2023/01/03 05:37:56;;;;;;;;;0.00;0.00;;;;;20.03;52.17;102139.13;5080772;28;45361;-75
2023/01/03 05:40:22;;;;;;;;;0.00;0.00;;;;;20.00;52.18;102143.72;5079850;27;45481;-76
2023/01/03 05:42:47;;;;;;;;;0.00;0.00;;;;;20.01;52.14;102143.66;5079776;27;45593;-77
2023/01/03 05:45:13;;;;;;;;;0.00;0.00;;;;;19.90;51.98;102114.00;5072883;27;45394;-78
2023/01/03 05:47:38;;;;;;;;;0.00;0.00;;;;;19.82;52.00;102106.38;5095301;27;47380;-79
2023/01/03 05:50:04;;;;;;;;;0.00;0.00;;;;;19.95;52.23;102129.75;5066972;28;45357;-77
2023/01/03 05:52:29;;;;;;;;;0.00;0.00;;;;;19.99;51.74;102124.25;5110722;27;46025;-77
2023/01/03 05:54:55;;;;;;;;;0.00;0.00;;;;;19.80;51.77;102089.66;5077304;27;45556;-76
2023/01/03 05:57:20;;;;;;;;;0.00;0.00;;;;;20.00;52.31;102127.75;5077424;27;47146;-77
2023/01/03 05:59:45;;;;;;;;;0.00;0.00;;;;;19.90;52.02;102119.31;5086998;27;45390;-76
2023/01/03 06:02:11;;;;;;;;;0.00;0.00;;;;;19.88;52.00;102116.75;5056846;28;45498;-77
2023/01/03 06:04:36;;;;;;;;;0.00;0.00;;;;;19.86;51.88;102107.13;5078102;28;45452;-77
2023/01/03 06:07:02;;;;;;;;;0.25;0.00;;;;;19.87;52.00;102106.19;5079559;27;45381;-75
2023/01/03 06:09:27;;;;;;;;;0.00;0.00;;;;;20.05;51.88;102131.94;5060590;28;45661;-76
2023/01/03 06:11:52;;;;;;;;;0.00;0.00;;;;;20.00;52.30;102128.63;5074385;27;45437;-76
2023/01/03 06:14:18;;;;;;;;;1.50;0.00;;;;;19.95;51.96;102135.94;5086572;27;56073;-75
2023/01/03 06:19:28;;;;;;;;;0.00;0.00;;;;;20.01;52.26;102148.06;5103597;27;46575;-75
2023/01/03 06:21:53;;;;;;;;;0.00;0.00;;;;;19.99;51.88;102147.28;5059560;28;45548;-78
2023/01/03 06:24:19;;;;;;;;;0.00;0.00;;;;;19.92;52.13;102141.41;5094774;27;45579;-78
2023/01/03 06:26:44;;;;;;;;;0.00;0.00;;;;;19.90;52.01;102135.25;5077340;27;45484;-78
2023/01/03 06:29:10;;;;;;;;;0.00;0.00;;;;;20.03;51.74;102164.84;5080029;28;46454;-78
2023/01/03 06:31:35;;;;;;;;;0.00;0.00;;;;;19.87;51.83;102141.59;5108427;27;45460;-76
2023/01/03 06:34:02;;;;;;;;;0.00;0.00;;;;;20.03;52.20;102168.34;5076511;27;45354;-76
2023/01/03 06:36:27;;;;;;;;;4.25;3.00;;;;;20.01;51.13;102180.84;5069899;27;48226;-86
2023/01/03 06:38:53;;;;;;;;;4.50;2.75;;;;;19.42;50.00;102137.28;5071936;27;45479;-86
2023/01/03 06:41:19;;;;;;;;;3.00;2.00;;;;;19.00;49.59;102118.66;5074490;27;45664;-80
2023/01/03 06:43:45;;;;;;;;;4.25;3.00;;;;;18.90;49.25;102177.41;5090819;27;45591;-86
2023/01/03 06:54:57;;;;;;;;;11.50;8.00;;;;;17.06;49.17;102156.41;5070218;28;45371;-84
2023/01/03 06:57:23;;;;;;;;;7.75;7.25;;;;;16.78;49.19;102161.63;5076078;27;45564;-79
2023/01/03 06:59:48;;;;;;;;;4.00;4.00;;;;;16.39;49.30;102148.69;5071908;28;45386;-81
2023/01/03 07:02:13;;;;;;;;;4.00;4.00;;;;;16.28;49.56;102164.00;5067510;28;45466;-84
2023/01/03 07:04:39;;;;;;;;;1.50;1.00;;;;;16.05;50.28;102138.22;5069096;27;45560;-78
2023/01/03 07:07:04;;;;;;;;;1.00;1.00;;;;;16.09;50.98;102129.28;5075444;27;47460;-77
2023/01/03 07:09:29;;;;;;;;;2.00;2.00;;;;;16.44;51.46;102149.41;5075184;27;46411;-77
2023/01/03 07:11:55;;;;;;;;;1.00;1.00;;;;;16.86;51.55;102195.84;5074536;27;48325;-77
2023/01/03 07:14:20;;;;;;;;;2.00;0.00;;;;;16.98;51.88;102168.13;5077542;28;45488;-87
2023/01/03 07:16:47;;;;;;;;;1.00;1.00;;;;;17.28;52.03;102190.09;5074099;27;47138;-85
2023/01/03 07:19:14;;;;;;;;;2.75;0.25;;;;;17.51;52.13;102192.03;5063214;27;45752;-86
2023/01/03 07:21:40;;;;;;;;;1.75;1.00;;;;;17.58;52.08;102174.16;5051627;28;45362;-81
2023/01/03 07:24:07;;;;;;;;;0.75;0.50;;;;;17.75;52.23;102178.88;5068017;27;45363;-87
2023/01/03 07:26:34;;;;;;;;;4.25;1.00;;;;;18.03;52.12;102208.81;5073227;27;47921;-88
2023/01/03 07:29:04;;;;;;;;;2.00;0.75;;;;;17.95;52.22;102159.69;5076463;28;45314;-85
2023/01/03 07:31:31;;;;;;;;;0.00;0.00;;;;;18.28;52.62;102193.84;5071904;27;45559;-80
2023/01/03 07:33:57;;;;;;;;;0.00;0.00;;;;;18.36;52.29;102182.06;5074278;28;45465;-78
2023/01/03 07:36:22;;;;;;;;;2.00;0.00;;;;;18.43;52.33;102181.81;5069138;27;47477;-77
2023/01/03 07:38:48;;;;;;;;;0.00;0.00;;;;;18.66;52.57;102208.38;5063757;27;45363;-84
2023/01/03 07:41:14;;;;;;;;;0.00;0.00;;;;;18.77;52.36;102208.81;5071257;27;45454;-77
2023/01/03 07:43:43;;;;;;;;;0.00;0.00;;;;;18.83;52.42;102201.56;5056465;28;45533;-76
2023/01/03 07:46:17;;;;;;;;;0.00;0.00;;;;;18.98;52.71;102211.56;5057603;28;47402;-81
2023/01/03 07:48:43;;;;;;;;;2.00;1.00;;;;;19.10;52.41;102210.25;5087573;27;45776;-77
2023/01/03 07:51:11;;;;;;;;;5.75;2.00;;;;;19.19;52.36;102207.22;5066084;27;45477;-79
2023/01/03 07:53:36;;;;;;;;;3.00;0.75;;;;;19.27;52.31;102217.56;5071595;27;45486;-76
2023/01/03 07:56:07;;;;;;;;;4.00;1.75;;;;;19.22;52.62;102204.44;5067837;27;47050;-76
2023/01/03 07:58:33;;;;;;;;;3.00;1.50;;;;;19.31;52.66;102214.69;5087582;27;45653;-76
2023/01/03 08:01:06;;;;;;;;;2.25;2.00;;;;;19.42;52.42;102222.22;5075474;28;45506;-78
2023/01/03 08:03:32;;;;;;;;;4.00;1.75;;;;;19.29;52.55;102197.13;5073122;27;45267;-78
2023/01/03 08:06:02;;;;;;;;;1.00;1.00;;;;;19.45;52.56;102211.50;5059374;28;47331;-78
2023/01/03 08:08:27;;;;;;;;;2.00;2.00;;;;;19.44;52.35;102206.22;5070658;28;45376;-79
2023/01/03 08:13:36;;;;;;;;;3.75;2.00;;;;;19.57;52.60;102227.88;5075857;28;45391;-80
2023/01/03 08:16:03;;;;;;;;;7.00;2.00;;;;;19.39;52.09;102197.59;5072091;28;46998;-78
2023/01/03 08:18:28;;;;;;;;;1.00;1.00;;;;;19.55;52.27;102225.28;5074747;28;45796;-77
2023/01/03 08:20:56;;;;;;;;;2.25;1.00;;;;;19.67;52.37;102240.69;5056684;28;45275;-77
2023/01/03 08:23:22;;;;;;;;;3.00;2.00;;;;;19.78;52.05;102256.22;5072396;28;45304;-77
2023/01/03 08:25:47;;;;;;;;;1.25;0.75;;;;;19.64;52.57;102226.69;5075555;28;47275;-78
2023/01/03 08:28:13;;;;;;;;;2.75;0.50;;;;;19.79;52.06;102247.31;5075415;28;45443;-77
2023/01/03 08:30:41;;;;;;;;;1.00;1.00;;;;;19.70;52.11;102227.28;5076872;28;45832;-77
2023/01/03 08:33:09;;;;;;;;;3.00;1.00;;;;;19.90;51.95;102250.41;5073049;27;45552;-77
2023/01/03 08:35:38;;;;;;;;;3.25;2.00;;;;;19.72;51.83;102217.47;5059694;28;47927;-77
2023/01/03 08:38:06;;;;;;;;;1.25;0.00;;;;;19.91;52.21;102240.63;5077482;27;45533;-77
2023/01/03 08:40:34;;;;;;;;;4.25;1.75;;;;;19.88;51.76;102230.13;5090480;27;45334;-77
2023/01/03 08:43:02;;;;;;;;;3.50;1.00;;;;;19.95;51.78;102246.69;5107915;27;45582;-80
2023/01/03 08:45:27;;;;;;;;;1.25;0.50;;;;;20.04;51.84;102249.81;5075361;28;48204;-78
2023/01/03 08:47:54;;;;;;;;;2.00;1.00;;;;;19.77;52.13;102211.13;5068204;28;45319;-77
2023/01/03 08:50:19;;;;;;;;;2.75;1.00;;;;;19.97;51.67;102236.84;5076696;27;45620;-78
2023/01/03 08:52:45;;;;;;;;;3.25;0.25;;;;;19.92;51.81;102234.41;5086369;27;45473;-78
2023/01/03 08:55:10;;;;;;;;;1.00;1.00;;;;;20.01;51.87;102236.66;5072771;28;45424;-77
2023/01/03 08:57:36;;;;;;;;;1.75;1.00;;;;;20.16;51.49;102258.19;5070742;28;45364;-79
2023/01/03 09:00:01;;;;;;;;;2.00;1.25;;;;;20.02;51.43;102242.81;5073622;28;45792;-80
2023/01/03 09:02:27;;;;;;;;;1.00;1.00;;;;;19.97;51.30;102223.56;5073439;28;45531;-80
2023/01/03 09:04:52;;;;;;;;;0.00;0.00;;;;;19.88;51.37;102209.75;5080028;27;45373;-77
2023/01/03 09:07:17;;;;;;;;;1.00;1.00;;;;;20.00;51.68;102239.38;5058011;28;45391;-77
2023/01/03 09:09:43;;;;;;;;;3.75;1.50;;;;;20.09;51.21;102246.94;5110959;27;45246;-77
2023/01/03 09:12:08;;;;;;;;;1.00;1.00;;;;;20.21;50.96;102261.50;5073475;27;45397;-77
2023/01/03 09:14:34;;;;;;;;;2.50;1.00;;;;;20.06;51.32;102231.13;5103114;27;49121;-77
2023/01/03 09:16:59;;;;;;;;;1.25;0.50;;;;;20.07;51.27;102225.75;5087585;27;49372;-77
2023/01/03 09:19:24;;;;;;;;;1.00;1.00;;;;;20.10;51.31;102248.69;5075029;28;45334;-79
2023/01/03 09:21:50;;;;;;;;;2.00;0.00;;;;;20.28;51.15;102262.97;5050876;28;45456;-79
2023/01/03 09:24:15;;;;;;;;;3.50;0.75;;;;;20.25;50.81;102263.09;5070693;28;45411;-77
2023/01/03 09:26:40;;;;;;;;;1.50;1.00;;;;;20.29;51.13;102276.19;5070003;28;45220;-77
2023/01/03 09:29:06;;;;;;;;;1.00;1.00;;;;;20.25;51.23;102263.09;5081351;28;45283;-78
2023/01/03 09:31:33;;;;;;;;;2.25;1.00;;;;;20.21;51.19;102267.69;5076997;28;47014;-77
2023/01/03 09:33:59;;;;;;;;;2.50;1.00;;;;;20.33;50.69;102276.94;5097689;27;48338;-77
2023/01/03 09:36:25;;;;;;;;;3.25;1.00;;;;;20.19;51.18;102252.75;5058358;28;45737;-77
2023/01/03 09:38:50;;;;;;;;;4.00;1.25;;;;;20.34;50.98;102269.81;5072453;28;45469;-77
2023/01/03 09:41:21;;;;;;;;;1.00;1.00;;;;;20.30;51.24;102261.97;5079182;28;45479;-78
2023/01/03 09:43:48;;;;;;;;;1.50;1.00;;;;;20.37;51.14;102269.69;5054482;28;48439;-77
2023/01/03 09:46:24;;;;;;;;;1.00;1.00;;;;;20.26;50.77;102260.38;5079407;28;45444;-77
2023/01/03 09:48:51;;;;;;;;;2.00;2.00;;;;;20.39;50.98;102270.47;5093661;27;45406;-80
2023/01/03 10:05:26;;;;;;;;;1.00;1.00;;;;;20.38;50.13;102280.25;5078392;28;45731;-78
2023/01/03 10:08:29;;;;;;;;;3.00;1.00;;;;;20.45;50.21;102291.47;5103385;27;45595;-78
2023/01/03 10:11:03;;;;;;;;;1.25;1.00;;;;;20.28;50.34;102255.84;5072497;28;45456;-78
2023/01/03 10:13:52;;;;;;;;;0.50;0.50;;;;;20.34;50.14;102264.50;5079730;28;45237;-78
2023/01/03 10:16:24;;;;;;;;;1.75;1.00;;;;;20.31;49.97;102262.84;5105303;27;48213;-77
2023/01/03 10:19:16;;;;;;;;;1.75;0.75;;;;;20.28;50.35;102263.81;5104848;27;45737;-79
2023/01/03 10:21:55;;;;;;;;;1.00;1.00;;;;;20.41;50.38;102287.22;5078272;27;45561;-78
2023/01/03 10:24:27;;;;;;;;;1.00;0.00;;;;;20.43;50.03;102286.25;5079927;27;45410;-78
2023/01/03 10:27:03;;;;;;;;;1.00;1.00;;;;;20.40;50.56;102301.47;5064182;28;48063;-77
2023/01/03 10:29:28;;;;;;;;;1.00;1.00;;;;;20.48;50.42;102300.16;5079219;27;45410;-80
2023/01/03 10:31:56;;;;;;;;;1.00;0.00;;;;;20.47;50.28;102301.13;5075137;27;45513;-77
2023/01/03 10:34:23;;;;;;;;;1.00;1.00;;;;;20.31;50.18;102276.13;5076830;27;45457;-80
2023/01/03 10:36:48;;;;;;;;;1.00;1.00;;;;;20.26;49.85;102264.84;5075917;28;47336;-80
2023/01/03 10:39:14;;;;;;;;;1.00;1.00;;;;;20.41;49.87;102285.41;5063918;28;45379;-79
2023/01/03 10:41:42;;;;;;;;;1.50;1.00;;;;;20.50;50.07;102294.78;5073036;28;45417;-79
2023/01/03 10:44:40;;;;;;;;;1.25;1.25;;;;;20.36;49.98;102276.81;5099313;27;45285;-80
2023/01/03 10:47:14;;;;;;;;;2.50;0.00;;;;;20.39;50.21;102270.47;5035271;28;47952;-80
2023/01/03 10:49:43;;;;;;;;;2.50;1.00;;;;;20.36;50.37;102273.25;5070237;27;45299;-79
2023/01/03 10:52:13;;;;;;;;;3.50;1.50;;;;;20.46;50.28;102278.09;5057851;28;45366;-80
2023/01/03 10:54:41;;;;;;;;;1.75;1.25;;;;;20.54;50.32;102292.84;5079704;28;45464;-77
2023/01/03 10:57:07;;;;;;;;;1.75;1.00;;;;;20.51;49.90;102287.69;5074231;28;47456;-77
2023/01/03 10:59:33;;;;;;;;;2.00;0.00;;;;;20.51;49.88;102282.38;5065001;28;45839;-77
2023/01/03 11:02:07;;;;;;;;;0.50;0.50;;;;;20.56;49.85;102299.84;5056655;28;45381;-77
2023/01/03 11:04:33;;;;;;;;;2.00;1.75;;;;;20.49;50.09;102277.13;5080962;28;45485;-77
2023/01/03 11:07:03;;;;;;;;;0.25;0.00;;;;;20.43;49.93;102272.94;5092912;27;47658;-77
2023/01/03 11:09:52;;;;;;;;;3.25;2.00;;;;;20.38;50.20;102261.66;5078421;27;45246;-80
2023/01/03 11:12:38;;;;;;;;;1.00;1.00;;;;;20.59;50.16;102285.53;5073526;28;45307;-79
2023/01/03 11:15:14;;;;;;;;;1.00;0.75;;;;;20.59;49.79;102280.22;5073906;28;45537;-80
2023/01/03 11:18:03;;;;;;;;;2.00;0.75;;;;;20.59;49.78;102285.53;5073278;27;46283;-79
2023/01/03 11:20:44;;;;;;;;;2.00;1.75;;;;;20.51;49.54;102264.63;5092009;27;46057;-79
2023/01/03 11:23:28;;;;;;;;;1.00;1.00;;;;;20.46;49.86;102258.63;5068399;27;45382;-79
2023/01/03 11:26:29;;;;;;;;;0.50;0.50;;;;;20.42;49.89;102235.78;5069234;28;45398;-80
2023/01/03 11:29:00;;;;;;;;;1.25;0.75;;;;;20.60;49.78;102269.53;5081856;27;45612;-79
2023/01/03 11:31:33;;;;;;;;;1.25;1.25;;;;;20.61;49.74;102267.72;5070870;28;45634;-79
2023/01/03 11:34:25;;;;;;;;;3.00;0.00;;;;;20.60;49.78;102269.53;5074481;28;45444;-79
2023/01/03 11:37:23;;;;;;;;;3.00;1.00;;;;;20.61;49.70;102263.31;5083772;27;45581;-77
2023/01/03 11:40:14;;;;;;;;;1.25;1.25;;;;;20.46;49.56;102243.53;5079793;27;45634;-77
2023/01/03 11:42:49;;;;;;;;;1.00;1.00;;;;;20.61;49.22;102260.66;5074258;27;45263;-77
2023/01/03 11:45:33;;;;;;;;;2.00;1.00;;;;;20.49;49.46;102251.38;5103890;27;45512;-80
2023/01/03 11:48:20;;;;;;;;;2.50;1.75;;;;;20.61;49.53;102270.38;5069556;28;45216;-79
2023/01/03 11:50:58;;;;;;;;;2.00;0.00;;;;;20.50;49.37;102252.25;5067729;27;45286;-79
2023/01/03 11:53:27;;;;;;;;;1.00;1.00;;;;;20.60;49.55;102269.53;5102217;27;45466;-79
2023/01/03 11:56:07;;;;;;;;;2.50;1.75;;;;;20.40;49.79;102235.00;5076095;28;45470;-79
2023/01/03 11:58:52;;;;;;;;;1.75;1.75;;;;;20.60;49.22;102269.53;5072418;28;45397;-79
2023/01/03 12:01:43;;;;;;;;;3.75;1.00;;;;;20.60;49.21;102263.34;5074481;27;47292;-79
2023/01/03 12:04:25;;;;;;;;;2.00;2.00;;;;;20.61;49.19;102257.06;5071159;28;45606;-80
2023/01/03 12:07:16;;;;;;;;;4.25;3.00;;;;;20.59;49.59;102253.63;5074033;27;45556;-79
2023/01/03 12:09:49;;;;;;;;;1.00;1.00;;;;;20.60;49.12;102256.22;5093959;27;45626;-79
2023/01/03 12:12:39;;;;;;;;;2.00;1.00;;;;;20.62;49.51;102253.53;5070894;28;45773;-79
2023/01/03 12:15:18;;;;;;;;;1.00;1.00;;;;;20.45;49.31;102224.97;5061025;28;45442;-79
2023/01/03 12:17:51;;;;;;;;;1.75;1.75;;;;;20.46;49.48;102227.56;5073481;28;45643;-79
2023/01/03 12:20:26;;;;;;;;;6.25;2.00;;;;;20.63;49.61;102242.81;5069631;28;45452;-79
2023/01/03 12:23:26;;;;;;;;;1.00;0.50;;;;;20.52;49.42;102210.47;5068712;28;47234;-80
2023/01/03 12:25:56;;;;;;;;;1.00;1.00;;;;;20.62;49.24;102226.94;5072724;27;45216;-79
2023/01/03 12:28:27;;;;;;;;;4.25;1.00;;;;;20.53;49.13;102220.19;5077190;27;45376;-79
2023/01/03 12:31:03;;;;;;;;;4.00;1.75;;;;;20.67;49.56;102232.91;5072002;28;45513;-79
2023/01/03 12:33:39;;;;;;;;;2.25;1.25;;;;;20.67;49.57;102228.44;5087061;27;48290;-79
2023/01/03 12:36:24;;;;;;;;;2.00;2.00;;;;;20.68;49.37;102231.94;5073694;27;45329;-80